sensor_id;sensor_type;location;lat;lon;timestamp;P1;durP1;ratioP1;P2;durP2;ratioP2
12042;SDS011;6082;49.306;12.862;2022-07-23T00:01:15;7.27;;;5.97;;
12042;SDS011;6082;49.306;12.862;2022-07-23T00:03:41;7.37;;;5.50;;
12042;SDS011;6082;49.306;12.862;2022-07-23T00:06:07;7.93;;;5.77;;
12042;SDS011;6082;49.306;12.862;2022-07-23T00:08:32;8.67;;;5.80;;
12042;SDS011;6082;49.306;12.862;2022-07-23T00:10:58;7.93;;;5.73;;
12042;SDS011;6082;49.306;12.862;2022-07-23T00:13:25;7.33;;;5.50;;
12042;SDS011;6082;49.306;12.862;2022-07-23T00:15:51;9.07;;;5.60;;
12042;SDS011;6082;49.306;12.862;2022-07-23T00:18:17;8.50;;;5.90;;
12042;SDS011;6082;49.306;12.862;2022-07-23T00:20:43;7.97;;;5.47;;
12042;SDS011;6082;49.306;12.862;2022-07-23T00:23:08;8.27;;;5.87;;
12042;SDS011;6082;49.306;12.862;2022-07-23T00:25:34;7.13;;;5.57;;
12042;SDS011;6082;49.306;12.862;2022-07-23T00:28:00;6.40;;;5.23;;
12042;SDS011;6082;49.306;12.862;2022-07-23T00:30:27;6.53;;;5.00;;
12042;SDS011;6082;49.306;12.862;2022-07-23T00:32:57;7.17;;;5.23;;
12042;SDS011;6082;49.306;12.862;2022-07-23T00:35:25;7.07;;;5.03;;
12042;SDS011;6082;49.306;12.862;2022-07-23T00:37:51;7.30;;;5.73;;
12042;SDS011;6082;49.306;12.862;2022-07-23T00:40:17;9.30;;;6.07;;
12042;SDS011;6082;49.306;12.862;2022-07-23T00:42:43;8.57;;;5.93;;
12042;SDS011;6082;49.306;12.862;2022-07-23T00:45:10;8.00;;;6.37;;
12042;SDS011;6082;49.306;12.862;2022-07-23T00:47:36;7.53;;;5.87;;
12042;SDS011;6082;49.306;12.862;2022-07-23T00:50:05;7.97;;;5.67;;
12042;SDS011;6082;49.306;12.862;2022-07-23T00:52:33;8.77;;;6.40;;
12042;SDS011;6082;49.306;12.862;2022-07-23T00:55:00;9.13;;;6.60;;
12042;SDS011;6082;49.306;12.862;2022-07-23T00:57:26;9.13;;;6.57;;
12042;SDS011;6082;49.306;12.862;2022-07-23T00:59:51;7.50;;;6.00;;
12042;SDS011;6082;49.306;12.862;2022-07-23T01:02:17;6.77;;;5.27;;
12042;SDS011;6082;49.306;12.862;2022-07-23T01:04:43;8.20;;;6.30;;
12042;SDS011;6082;49.306;12.862;2022-07-23T01:07:09;8.10;;;6.13;;
12042;SDS011;6082;49.306;12.862;2022-07-23T01:09:35;7.97;;;6.13;;
12042;SDS011;6082;49.306;12.862;2022-07-23T01:12:02;8.07;;;6.03;;
12042;SDS011;6082;49.306;12.862;2022-07-23T01:14:28;7.73;;;5.70;;
12042;SDS011;6082;49.306;12.862;2022-07-23T01:16:54;7.43;;;5.73;;
12042;SDS011;6082;49.306;12.862;2022-07-23T01:19:20;7.77;;;6.23;;
12042;SDS011;6082;49.306;12.862;2022-07-23T01:21:47;9.37;;;6.20;;
12042;SDS011;6082;49.306;12.862;2022-07-23T01:24:15;9.60;;;6.57;;
12042;SDS011;6082;49.306;12.862;2022-07-23T01:26:42;8.43;;;6.47;;
12042;SDS011;6082;49.306;12.862;2022-07-23T01:29:10;6.27;;;5.10;;
12042;SDS011;6082;49.306;12.862;2022-07-23T01:31:36;6.27;;;5.40;;
12042;SDS011;6082;49.306;12.862;2022-07-23T01:34:02;7.53;;;6.00;;
12042;SDS011;6082;49.306;12.862;2022-07-23T01:36:28;7.23;;;6.17;;
12042;SDS011;6082;49.306;12.862;2022-07-23T01:38:53;10.77;;;7.23;;
12042;SDS011;6082;49.306;12.862;2022-07-23T01:41:19;9.57;;;6.50;;
12042;SDS011;6082;49.306;12.862;2022-07-23T01:43:45;8.53;;;6.40;;
12042;SDS011;6082;49.306;12.862;2022-07-23T01:46:11;7.53;;;5.83;;
12042;SDS011;6082;49.306;12.862;2022-07-23T01:48:37;9.07;;;6.63;;
12042;SDS011;6082;49.306;12.862;2022-07-23T01:51:03;8.70;;;6.30;;
12042;SDS011;6082;49.306;12.862;2022-07-23T01:53:29;9.90;;;6.43;;
12042;SDS011;6082;49.306;12.862;2022-07-23T01:55:56;6.93;;;5.80;;
12042;SDS011;6082;49.306;12.862;2022-07-23T01:58:23;10.67;;;6.20;;
12042;SDS011;6082;49.306;12.862;2022-07-23T02:00:49;8.60;;;6.57;;
12042;SDS011;6082;49.306;12.862;2022-07-23T02:03:15;8.43;;;6.43;;
12042;SDS011;6082;49.306;12.862;2022-07-23T02:05:40;7.27;;;5.33;;
12042;SDS011;6082;49.306;12.862;2022-07-23T02:08:06;7.33;;;6.03;;
12042;SDS011;6082;49.306;12.862;2022-07-23T02:10:32;8.43;;;6.63;;
12042;SDS011;6082;49.306;12.862;2022-07-23T02:12:58;8.47;;;5.83;;
12042;SDS011;6082;49.306;12.862;2022-07-23T02:15:24;8.30;;;5.80;;
12042;SDS011;6082;49.306;12.862;2022-07-23T02:17:50;7.03;;;5.17;;
12042;SDS011;6082;49.306;12.862;2022-07-23T02:20:15;5.20;;;4.53;;
12042;SDS011;6082;49.306;12.862;2022-07-23T02:22:41;5.97;;;4.97;;
12042;SDS011;6082;49.306;12.862;2022-07-23T02:25:07;9.77;;;5.60;;
12042;SDS011;6082;49.306;12.862;2022-07-23T02:27:34;7.20;;;5.30;;
12042;SDS011;6082;49.306;12.862;2022-07-23T02:30:01;6.47;;;4.87;;
12042;SDS011;6082;49.306;12.862;2022-07-23T02:32:27;6.47;;;5.23;;
12042;SDS011;6082;49.306;12.862;2022-07-23T02:34:53;6.33;;;4.70;;
12042;SDS011;6082;49.306;12.862;2022-07-23T02:37:19;6.43;;;5.40;;
12042;SDS011;6082;49.306;12.862;2022-07-23T02:39:45;6.70;;;4.80;;
12042;SDS011;6082;49.306;12.862;2022-07-23T02:42:13;6.33;;;5.23;;
12042;SDS011;6082;49.306;12.862;2022-07-23T02:44:39;7.33;;;5.33;;
12042;SDS011;6082;49.306;12.862;2022-07-23T02:47:05;7.57;;;5.57;;
12042;SDS011;6082;49.306;12.862;2022-07-23T02:49:31;7.53;;;5.00;;
12042;SDS011;6082;49.306;12.862;2022-07-23T02:51:56;6.43;;;4.93;;
12042;SDS011;6082;49.306;12.862;2022-07-23T02:54:22;6.20;;;4.83;;
12042;SDS011;6082;49.306;12.862;2022-07-23T02:56:48;5.53;;;4.60;;
12042;SDS011;6082;49.306;12.862;2022-07-23T02:59:16;6.83;;;5.53;;
12042;SDS011;6082;49.306;12.862;2022-07-23T03:01:42;6.10;;;5.13;;
12042;SDS011;6082;49.306;12.862;2022-07-23T03:04:09;6.07;;;4.63;;
12042;SDS011;6082;49.306;12.862;2022-07-23T03:06:35;6.83;;;5.17;;
12042;SDS011;6082;49.306;12.862;2022-07-23T03:09:02;7.07;;;5.87;;
12042;SDS011;6082;49.306;12.862;2022-07-23T03:11:28;5.63;;;5.07;;
12042;SDS011;6082;49.306;12.862;2022-07-23T03:13:54;9.17;;;5.93;;
12042;SDS011;6082;49.306;12.862;2022-07-23T03:16:20;7.00;;;4.93;;
12042;SDS011;6082;49.306;12.862;2022-07-23T03:18:46;13.03;;;6.83;;
12042;SDS011;6082;49.306;12.862;2022-07-23T03:21:13;10.90;;;6.60;;
12042;SDS011;6082;49.306;12.862;2022-07-23T03:23:39;12.60;;;6.70;;
12042;SDS011;6082;49.306;12.862;2022-07-23T03:26:05;9.17;;;6.03;;
12042;SDS011;6082;49.306;12.862;2022-07-23T03:28:31;9.00;;;6.90;;
12042;SDS011;6082;49.306;12.862;2022-07-23T03:30:57;9.73;;;6.17;;
12042;SDS011;6082;49.306;12.862;2022-07-23T03:33:23;7.93;;;6.27;;
12042;SDS011;6082;49.306;12.862;2022-07-23T03:35:49;10.30;;;6.30;;
12042;SDS011;6082;49.306;12.862;2022-07-23T03:38:15;11.13;;;7.07;;
12042;SDS011;6082;49.306;12.862;2022-07-23T03:40:41;11.67;;;7.23;;
12042;SDS011;6082;49.306;12.862;2022-07-23T03:43:08;9.07;;;6.17;;
12042;SDS011;6082;49.306;12.862;2022-07-23T03:45:34;10.13;;;7.17;;
12042;SDS011;6082;49.306;12.862;2022-07-23T03:48:00;10.07;;;6.93;;
12042;SDS011;6082;49.306;12.862;2022-07-23T03:50:26;10.33;;;6.53;;
12042;SDS011;6082;49.306;12.862;2022-07-23T03:52:52;8.83;;;6.53;;
12042;SDS011;6082;49.306;12.862;2022-07-23T03:55:19;8.47;;;6.03;;
12042;SDS011;6082;49.306;12.862;2022-07-23T03:57:45;9.37;;;6.43;;
12042;SDS011;6082;49.306;12.862;2022-07-23T04:00:11;7.90;;;5.93;;
12042;SDS011;6082;49.306;12.862;2022-07-23T04:02:38;8.60;;;6.23;;
12042;SDS011;6082;49.306;12.862;2022-07-23T04:05:04;8.97;;;5.90;;
12042;SDS011;6082;49.306;12.862;2022-07-23T04:07:30;10.03;;;6.07;;
12042;SDS011;6082;49.306;12.862;2022-07-23T04:09:57;7.53;;;6.30;;
12042;SDS011;6082;49.306;12.862;2022-07-23T04:12:23;10.40;;;6.33;;
12042;SDS011;6082;49.306;12.862;2022-07-23T04:14:50;9.33;;;5.70;;
12042;SDS011;6082;49.306;12.862;2022-07-23T04:17:16;9.00;;;6.20;;
12042;SDS011;6082;49.306;12.862;2022-07-23T04:19:42;11.17;;;7.10;;
12042;SDS011;6082;49.306;12.862;2022-07-23T04:22:09;8.97;;;6.17;;
12042;SDS011;6082;49.306;12.862;2022-07-23T04:24:35;9.77;;;6.93;;
12042;SDS011;6082;49.306;12.862;2022-07-23T04:27:02;8.60;;;6.20;;
12042;SDS011;6082;49.306;12.862;2022-07-23T04:29:28;11.30;;;6.30;;
12042;SDS011;6082;49.306;12.862;2022-07-23T04:31:55;8.93;;;6.17;;
12042;SDS011;6082;49.306;12.862;2022-07-23T04:34:21;7.37;;;5.67;;
12042;SDS011;6082;49.306;12.862;2022-07-23T04:36:47;7.90;;;5.73;;
12042;SDS011;6082;49.306;12.862;2022-07-23T04:39:14;9.87;;;6.00;;
12042;SDS011;6082;49.306;12.862;2022-07-23T04:41:40;9.07;;;5.53;;
12042;SDS011;6082;49.306;12.862;2022-07-23T04:44:06;7.10;;;5.07;;
12042;SDS011;6082;49.306;12.862;2022-07-23T04:46:32;8.43;;;5.47;;
12042;SDS011;6082;49.306;12.862;2022-07-23T04:48:58;7.10;;;5.33;;
12042;SDS011;6082;49.306;12.862;2022-07-23T04:51:24;8.40;;;5.47;;
12042;SDS011;6082;49.306;12.862;2022-07-23T04:53:50;7.07;;;5.00;;
12042;SDS011;6082;49.306;12.862;2022-07-23T04:56:16;8.00;;;5.47;;
12042;SDS011;6082;49.306;12.862;2022-07-23T04:58:42;6.33;;;4.67;;
12042;SDS011;6082;49.306;12.862;2022-07-23T05:01:08;6.87;;;5.30;;
12042;SDS011;6082;49.306;12.862;2022-07-23T05:03:35;6.63;;;5.37;;
12042;SDS011;6082;49.306;12.862;2022-07-23T05:06:01;6.97;;;4.80;;
12042;SDS011;6082;49.306;12.862;2022-07-23T05:08:28;7.03;;;4.50;;
12042;SDS011;6082;49.306;12.862;2022-07-23T05:10:54;8.97;;;4.70;;
12042;SDS011;6082;49.306;12.862;2022-07-23T05:13:20;6.90;;;4.97;;
12042;SDS011;6082;49.306;12.862;2022-07-23T05:15:46;8.40;;;5.37;;
12042;SDS011;6082;49.306;12.862;2022-07-23T05:18:12;7.13;;;4.60;;
12042;SDS011;6082;49.306;12.862;2022-07-23T05:20:38;5.20;;;4.17;;
12042;SDS011;6082;49.306;12.862;2022-07-23T05:23:04;6.20;;;4.50;;
12042;SDS011;6082;49.306;12.862;2022-07-23T05:25:31;8.00;;;4.97;;
12042;SDS011;6082;49.306;12.862;2022-07-23T05:27:57;6.40;;;4.70;;
12042;SDS011;6082;49.306;12.862;2022-07-23T05:30:23;7.63;;;5.07;;
12042;SDS011;6082;49.306;12.862;2022-07-23T05:32:52;7.13;;;5.10;;
12042;SDS011;6082;49.306;12.862;2022-07-23T05:35:18;6.30;;;4.80;;
12042;SDS011;6082;49.306;12.862;2022-07-23T05:37:44;10.03;;;5.23;;
12042;SDS011;6082;49.306;12.862;2022-07-23T05:40:10;7.00;;;5.00;;
12042;SDS011;6082;49.306;12.862;2022-07-23T05:42:37;7.60;;;5.50;;
12042;SDS011;6082;49.306;12.862;2022-07-23T05:45:04;7.80;;;5.30;;
12042;SDS011;6082;49.306;12.862;2022-07-23T05:50:34;7.20;;;5.23;;
12042;SDS011;6082;49.306;12.862;2022-07-23T05:53:00;8.13;;;5.37;;
12042;SDS011;6082;49.306;12.862;2022-07-23T05:55:26;6.20;;;4.73;;
12042;SDS011;6082;49.306;12.862;2022-07-23T05:57:54;9.03;;;5.10;;
12042;SDS011;6082;49.306;12.862;2022-07-23T06:00:20;8.10;;;5.20;;
12042;SDS011;6082;49.306;12.862;2022-07-23T06:02:47;10.90;;;5.07;;
12042;SDS011;6082;49.306;12.862;2022-07-23T06:05:13;7.17;;;5.20;;
12042;SDS011;6082;49.306;12.862;2022-07-23T06:07:39;6.87;;;5.40;;
12042;SDS011;6082;49.306;12.862;2022-07-23T06:10:05;7.03;;;5.03;;
12042;SDS011;6082;49.306;12.862;2022-07-23T06:12:31;7.70;;;4.80;;
12042;SDS011;6082;49.306;12.862;2022-07-23T06:14:57;7.57;;;5.00;;
12042;SDS011;6082;49.306;12.862;2022-07-23T06:17:24;6.53;;;4.83;;
12042;SDS011;6082;49.306;12.862;2022-07-23T06:19:51;5.87;;;4.37;;
12042;SDS011;6082;49.306;12.862;2022-07-23T06:22:17;6.77;;;4.93;;
12042;SDS011;6082;49.306;12.862;2022-07-23T06:24:43;7.63;;;4.70;;
12042;SDS011;6082;49.306;12.862;2022-07-23T06:27:09;6.57;;;4.77;;
12042;SDS011;6082;49.306;12.862;2022-07-23T06:29:35;6.77;;;4.70;;
12042;SDS011;6082;49.306;12.862;2022-07-23T06:32:01;6.70;;;4.90;;
12042;SDS011;6082;49.306;12.862;2022-07-23T06:34:27;7.37;;;4.83;;
12042;SDS011;6082;49.306;12.862;2022-07-23T06:36:53;6.67;;;5.00;;
12042;SDS011;6082;49.306;12.862;2022-07-23T06:39:19;7.80;;;5.10;;
12042;SDS011;6082;49.306;12.862;2022-07-23T06:41:46;7.20;;;5.00;;
12042;SDS011;6082;49.306;12.862;2022-07-23T06:44:12;6.77;;;4.93;;
12042;SDS011;6082;49.306;12.862;2022-07-23T06:46:38;8.73;;;5.60;;
12042;SDS011;6082;49.306;12.862;2022-07-23T06:49:04;6.83;;;5.23;;
12042;SDS011;6082;49.306;12.862;2022-07-23T06:51:30;8.30;;;5.67;;
12042;SDS011;6082;49.306;12.862;2022-07-23T06:53:56;9.13;;;6.00;;
12042;SDS011;6082;49.306;12.862;2022-07-23T06:56:22;7.70;;;5.60;;
12042;SDS011;6082;49.306;12.862;2022-07-23T06:58:48;7.33;;;5.57;;
12042;SDS011;6082;49.306;12.862;2022-07-23T07:01:14;8.60;;;5.90;;
12042;SDS011;6082;49.306;12.862;2022-07-23T07:03:40;7.53;;;5.80;;
12042;SDS011;6082;49.306;12.862;2022-07-23T07:06:06;7.73;;;5.60;;
12042;SDS011;6082;49.306;12.862;2022-07-23T07:08:32;7.83;;;5.83;;
12042;SDS011;6082;49.306;12.862;2022-07-23T07:10:59;10.00;;;5.77;;
12042;SDS011;6082;49.306;12.862;2022-07-23T07:13:25;9.40;;;6.07;;
12042;SDS011;6082;49.306;12.862;2022-07-23T07:15:51;6.83;;;5.27;;
12042;SDS011;6082;49.306;12.862;2022-07-23T07:18:17;8.10;;;5.60;;
12042;SDS011;6082;49.306;12.862;2022-07-23T07:20:43;8.43;;;5.27;;
12042;SDS011;6082;49.306;12.862;2022-07-23T07:23:09;5.47;;;4.77;;
12042;SDS011;6082;49.306;12.862;2022-07-23T07:25:35;7.03;;;4.73;;
12042;SDS011;6082;49.306;12.862;2022-07-23T07:28:01;6.27;;;4.57;;
12042;SDS011;6082;49.306;12.862;2022-07-23T07:30:27;6.60;;;4.53;;
12042;SDS011;6082;49.306;12.862;2022-07-23T07:32:53;7.00;;;4.33;;
12042;SDS011;6082;49.306;12.862;2022-07-23T07:35:19;6.80;;;4.37;;
12042;SDS011;6082;49.306;12.862;2022-07-23T07:37:46;8.23;;;4.13;;
12042;SDS011;6082;49.306;12.862;2022-07-23T07:40:12;5.70;;;3.83;;
12042;SDS011;6082;49.306;12.862;2022-07-23T07:42:48;6.13;;;4.17;;
12042;SDS011;6082;49.306;12.862;2022-07-23T07:45:15;4.53;;;3.97;;
12042;SDS011;6082;49.306;12.862;2022-07-23T07:47:41;8.87;;;4.73;;
12042;SDS011;6082;49.306;12.862;2022-07-23T07:50:07;5.87;;;3.90;;
12042;SDS011;6082;49.306;12.862;2022-07-23T07:52:34;5.87;;;4.13;;
12042;SDS011;6082;49.306;12.862;2022-07-23T07:55:02;4.90;;;3.67;;
12042;SDS011;6082;49.306;12.862;2022-07-23T07:57:28;5.10;;;3.70;;
12042;SDS011;6082;49.306;12.862;2022-07-23T07:59:54;6.40;;;3.80;;
12042;SDS011;6082;49.306;12.862;2022-07-23T08:02:20;5.77;;;3.60;;
12042;SDS011;6082;49.306;12.862;2022-07-23T08:04:46;6.40;;;3.73;;
12042;SDS011;6082;49.306;12.862;2022-07-23T08:07:14;3.93;;;3.27;;
12042;SDS011;6082;49.306;12.862;2022-07-23T08:09:40;3.57;;;3.10;;
12042;SDS011;6082;49.306;12.862;2022-07-23T08:12:06;3.67;;;2.90;;
12042;SDS011;6082;49.306;12.862;2022-07-23T08:14:32;5.00;;;3.00;;
12042;SDS011;6082;49.306;12.862;2022-07-23T08:16:58;3.73;;;3.00;;
12042;SDS011;6082;49.306;12.862;2022-07-23T08:19:24;4.13;;;2.90;;
12042;SDS011;6082;49.306;12.862;2022-07-23T08:21:50;4.87;;;3.40;;
12042;SDS011;6082;49.306;12.862;2022-07-23T08:24:16;3.90;;;3.13;;
12042;SDS011;6082;49.306;12.862;2022-07-23T08:26:42;3.70;;;3.00;;
12042;SDS011;6082;49.306;12.862;2022-07-23T08:29:09;4.47;;;3.30;;
12042;SDS011;6082;49.306;12.862;2022-07-23T08:31:35;4.00;;;3.10;;
12042;SDS011;6082;49.306;12.862;2022-07-23T08:34:01;3.90;;;2.80;;
12042;SDS011;6082;49.306;12.862;2022-07-23T08:36:27;4.60;;;3.47;;
12042;SDS011;6082;49.306;12.862;2022-07-23T08:39:00;3.07;;;2.67;;
12042;SDS011;6082;49.306;12.862;2022-07-23T08:41:28;3.77;;;3.00;;
12042;SDS011;6082;49.306;12.862;2022-07-23T08:43:54;3.87;;;2.60;;
12042;SDS011;6082;49.306;12.862;2022-07-23T08:46:21;3.50;;;2.53;;
12042;SDS011;6082;49.306;12.862;2022-07-23T08:48:48;4.90;;;2.93;;
12042;SDS011;6082;49.306;12.862;2022-07-23T08:51:15;5.83;;;2.80;;
12042;SDS011;6082;49.306;12.862;2022-07-23T08:53:41;3.40;;;2.80;;
12042;SDS011;6082;49.306;12.862;2022-07-23T08:56:07;3.83;;;2.90;;
12042;SDS011;6082;49.306;12.862;2022-07-23T08:58:34;3.50;;;2.87;;
12042;SDS011;6082;49.306;12.862;2022-07-23T09:01:00;3.10;;;2.80;;
12042;SDS011;6082;49.306;12.862;2022-07-23T09:03:27;3.67;;;2.87;;
12042;SDS011;6082;49.306;12.862;2022-07-23T09:05:54;3.50;;;2.77;;
12042;SDS011;6082;49.306;12.862;2022-07-23T09:11:02;3.57;;;3.03;;
12042;SDS011;6082;49.306;12.862;2022-07-23T09:16:17;3.63;;;3.20;;
12042;SDS011;6082;49.306;12.862;2022-07-23T09:18:48;4.20;;;2.93;;
12042;SDS011;6082;49.306;12.862;2022-07-23T09:21:15;3.57;;;2.93;;
12042;SDS011;6082;49.306;12.862;2022-07-23T09:23:51;3.13;;;2.50;;
12042;SDS011;6082;49.306;12.862;2022-07-23T09:26:18;2.90;;;2.60;;
12042;SDS011;6082;49.306;12.862;2022-07-23T09:31:18;3.30;;;2.60;;
12042;SDS011;6082;49.306;12.862;2022-07-23T09:33:44;3.00;;;2.40;;
12042;SDS011;6082;49.306;12.862;2022-07-23T09:36:10;3.30;;;2.60;;
12042;SDS011;6082;49.306;12.862;2022-07-23T09:38:47;5.57;;;3.10;;
12042;SDS011;6082;49.306;12.862;2022-07-23T09:41:13;3.77;;;3.07;;
12042;SDS011;6082;49.306;12.862;2022-07-23T09:43:39;3.00;;;2.40;;
12042;SDS011;6082;49.306;12.862;2022-07-23T09:48:51;3.03;;;2.53;;
12042;SDS011;6082;49.306;12.862;2022-07-23T09:51:17;2.70;;;2.47;;
12042;SDS011;6082;49.306;12.862;2022-07-23T09:54:02;4.10;;;2.60;;
12042;SDS011;6082;49.306;12.862;2022-07-23T09:56:28;3.43;;;2.80;;
12042;SDS011;6082;49.306;12.862;2022-07-23T09:58:54;3.33;;;2.53;;
12042;SDS011;6082;49.306;12.862;2022-07-23T10:01:36;3.77;;;2.70;;
12042;SDS011;6082;49.306;12.862;2022-07-23T10:04:02;2.90;;;2.60;;
12042;SDS011;6082;49.306;12.862;2022-07-23T10:06:28;3.10;;;2.80;;
12042;SDS011;6082;49.306;12.862;2022-07-23T10:08:56;3.47;;;2.60;;
12042;SDS011;6082;49.306;12.862;2022-07-23T10:11:24;3.33;;;2.73;;
12042;SDS011;6082;49.306;12.862;2022-07-23T10:13:50;2.80;;;2.33;;
12042;SDS011;6082;49.306;12.862;2022-07-23T10:16:19;4.57;;;2.70;;
12042;SDS011;6082;49.306;12.862;2022-07-23T10:18:46;2.83;;;2.40;;
12042;SDS011;6082;49.306;12.862;2022-07-23T10:21:12;3.07;;;2.40;;
12042;SDS011;6082;49.306;12.862;2022-07-23T10:23:42;3.20;;;2.90;;
12042;SDS011;6082;49.306;12.862;2022-07-23T10:26:32;3.17;;;2.87;;
12042;SDS011;6082;49.306;12.862;2022-07-23T10:33:55;2.93;;;2.63;;
12042;SDS011;6082;49.306;12.862;2022-07-23T10:36:40;3.53;;;3.10;;
12042;SDS011;6082;49.306;12.862;2022-07-23T10:39:10;2.70;;;2.43;;
12042;SDS011;6082;49.306;12.862;2022-07-23T10:41:40;3.10;;;2.73;;
12042;SDS011;6082;49.306;12.862;2022-07-23T10:46:36;4.57;;;2.77;;
12042;SDS011;6082;49.306;12.862;2022-07-23T10:49:29;2.87;;;2.50;;
12042;SDS011;6082;49.306;12.862;2022-07-23T10:54:47;4.37;;;3.20;;
12042;SDS011;6082;49.306;12.862;2022-07-23T10:57:14;3.50;;;2.97;;
12042;SDS011;6082;49.306;12.862;2022-07-23T11:02:34;3.13;;;2.80;;
12042;SDS011;6082;49.306;12.862;2022-07-23T11:05:05;3.13;;;2.63;;
12042;SDS011;6082;49.306;12.862;2022-07-23T11:07:31;2.97;;;2.63;;
12042;SDS011;6082;49.306;12.862;2022-07-23T11:09:57;3.00;;;2.63;;
12042;SDS011;6082;49.306;12.862;2022-07-23T11:15:03;2.80;;;2.40;;
12042;SDS011;6082;49.306;12.862;2022-07-23T11:17:30;3.03;;;2.80;;
12042;SDS011;6082;49.306;12.862;2022-07-23T11:25:10;3.37;;;2.83;;
12042;SDS011;6082;49.306;12.862;2022-07-23T11:27:39;3.35;;;2.70;;
12042;SDS011;6082;49.306;12.862;2022-07-23T11:30:10;3.30;;;3.00;;
12042;SDS011;6082;49.306;12.862;2022-07-23T11:32:37;3.10;;;2.80;;
12042;SDS011;6082;49.306;12.862;2022-07-23T11:35:25;3.58;;;3.05;;
12042;SDS011;6082;49.306;12.862;2022-07-23T11:37:51;3.20;;;2.90;;
12042;SDS011;6082;49.306;12.862;2022-07-23T11:40:23;3.25;;;2.70;;
12042;SDS011;6082;49.306;12.862;2022-07-23T11:45:29;2.83;;;2.53;;
12042;SDS011;6082;49.306;12.862;2022-07-23T11:47:55;3.90;;;3.53;;
12042;SDS011;6082;49.306;12.862;2022-07-23T11:50:23;4.00;;;3.55;;
12042;SDS011;6082;49.306;12.862;2022-07-23T11:52:50;4.47;;;4.07;;
12042;SDS011;6082;49.306;12.862;2022-07-23T11:55:16;4.77;;;3.90;;
12042;SDS011;6082;49.306;12.862;2022-07-23T11:57:42;4.63;;;4.20;;
12042;SDS011;6082;49.306;12.862;2022-07-23T12:00:11;4.77;;;4.10;;
12042;SDS011;6082;49.306;12.862;2022-07-23T12:02:41;4.60;;;3.90;;
12042;SDS011;6082;49.306;12.862;2022-07-23T12:05:10;4.50;;;3.67;;
12042;SDS011;6082;49.306;12.862;2022-07-23T12:07:38;3.93;;;3.30;;
12042;SDS011;6082;49.306;12.862;2022-07-23T12:12:38;4.30;;;3.60;;
12042;SDS011;6082;49.306;12.862;2022-07-23T12:15:04;4.90;;;3.67;;
12042;SDS011;6082;49.306;12.862;2022-07-23T12:17:31;4.20;;;3.80;;
12042;SDS011;6082;49.306;12.862;2022-07-23T12:19:58;5.00;;;3.93;;
12042;SDS011;6082;49.306;12.862;2022-07-23T12:22:25;5.83;;;3.77;;
12042;SDS011;6082;49.306;12.862;2022-07-23T12:24:52;4.80;;;3.73;;
12042;SDS011;6082;49.306;12.862;2022-07-23T12:27:20;4.80;;;4.03;;
12042;SDS011;6082;49.306;12.862;2022-07-23T12:29:46;4.47;;;4.07;;
12042;SDS011;6082;49.306;12.862;2022-07-23T12:32:16;5.13;;;3.70;;
12042;SDS011;6082;49.306;12.862;2022-07-23T12:34:43;5.73;;;4.07;;
12042;SDS011;6082;49.306;12.862;2022-07-23T12:37:24;4.50;;;3.90;;
12042;SDS011;6082;49.306;12.862;2022-07-23T12:39:51;4.60;;;3.60;;
12042;SDS011;6082;49.306;12.862;2022-07-23T12:42:17;4.97;;;4.07;;
12042;SDS011;6082;49.306;12.862;2022-07-23T12:45:02;5.03;;;3.87;;
12042;SDS011;6082;49.306;12.862;2022-07-23T12:47:28;4.30;;;3.70;;
12042;SDS011;6082;49.306;12.862;2022-07-23T12:49:54;4.03;;;3.63;;
12042;SDS011;6082;49.306;12.862;2022-07-23T12:52:21;5.33;;;3.90;;
12042;SDS011;6082;49.306;12.862;2022-07-23T12:54:47;4.90;;;4.20;;
12042;SDS011;6082;49.306;12.862;2022-07-23T12:57:13;4.40;;;3.70;;
12042;SDS011;6082;49.306;12.862;2022-07-23T12:59:39;4.43;;;4.00;;
12042;SDS011;6082;49.306;12.862;2022-07-23T13:02:08;3.93;;;3.50;;
12042;SDS011;6082;49.306;12.862;2022-07-23T13:04:34;4.43;;;3.80;;
12042;SDS011;6082;49.306;12.862;2022-07-23T13:07:00;4.50;;;3.80;;
12042;SDS011;6082;49.306;12.862;2022-07-23T13:09:30;4.53;;;3.67;;
12042;SDS011;6082;49.306;12.862;2022-07-23T13:12:00;3.70;;;3.40;;
12042;SDS011;6082;49.306;12.862;2022-07-23T13:14:26;4.20;;;3.70;;
12042;SDS011;6082;49.306;12.862;2022-07-23T13:16:53;4.33;;;3.33;;
12042;SDS011;6082;49.306;12.862;2022-07-23T13:19:19;3.27;;;2.67;;
12042;SDS011;6082;49.306;12.862;2022-07-23T13:21:47;4.00;;;3.10;;
12042;SDS011;6082;49.306;12.862;2022-07-23T13:24:14;3.07;;;2.77;;
12042;SDS011;6082;49.306;12.862;2022-07-23T13:26:40;3.17;;;2.73;;
12042;SDS011;6082;49.306;12.862;2022-07-23T13:29:06;3.60;;;2.57;;
12042;SDS011;6082;49.306;12.862;2022-07-23T13:31:32;2.60;;;2.40;;
12042;SDS011;6082;49.306;12.862;2022-07-23T13:33:59;3.40;;;2.95;;
12042;SDS011;6082;49.306;12.862;2022-07-23T13:36:25;3.03;;;2.70;;
12042;SDS011;6082;49.306;12.862;2022-07-23T13:38:51;4.27;;;3.20;;
12042;SDS011;6082;49.306;12.862;2022-07-23T13:41:17;2.90;;;2.28;;
12042;SDS011;6082;49.306;12.862;2022-07-23T13:43:44;2.43;;;2.17;;
12042;SDS011;6082;49.306;12.862;2022-07-23T13:46:10;3.03;;;2.40;;
12042;SDS011;6082;49.306;12.862;2022-07-23T13:48:36;2.77;;;2.50;;
12042;SDS011;6082;49.306;12.862;2022-07-23T13:51:02;2.60;;;2.40;;
12042;SDS011;6082;49.306;12.862;2022-07-23T13:53:28;3.07;;;2.50;;
12042;SDS011;6082;49.306;12.862;2022-07-23T13:55:54;3.10;;;2.47;;
12042;SDS011;6082;49.306;12.862;2022-07-23T13:58:20;2.53;;;2.20;;
12042;SDS011;6082;49.306;12.862;2022-07-23T14:00:48;3.60;;;2.53;;
12042;SDS011;6082;49.306;12.862;2022-07-23T14:03:15;3.10;;;2.67;;
12042;SDS011;6082;49.306;12.862;2022-07-23T14:05:42;3.58;;;2.47;;
12042;SDS011;6082;49.306;12.862;2022-07-23T14:08:11;2.45;;;2.25;;
12042;SDS011;6082;49.306;12.862;2022-07-23T14:10:37;3.00;;;2.50;;
12042;SDS011;6082;49.306;12.862;2022-07-23T14:13:03;2.67;;;2.40;;
12042;SDS011;6082;49.306;12.862;2022-07-23T14:15:30;2.77;;;2.00;;
12042;SDS011;6082;49.306;12.862;2022-07-23T14:17:57;2.40;;;2.20;;
12042;SDS011;6082;49.306;12.862;2022-07-23T14:20:23;2.38;;;2.17;;
12042;SDS011;6082;49.306;12.862;2022-07-23T14:22:50;2.97;;;2.40;;
12042;SDS011;6082;49.306;12.862;2022-07-23T14:25:16;2.30;;;2.10;;
12042;SDS011;6082;49.306;12.862;2022-07-23T14:27:42;3.10;;;2.58;;
12042;SDS011;6082;49.306;12.862;2022-07-23T14:30:10;2.60;;;2.35;;
12042;SDS011;6082;49.306;12.862;2022-07-23T14:32:36;2.60;;;2.38;;
12042;SDS011;6082;49.306;12.862;2022-07-23T14:35:02;3.42;;;2.20;;
12042;SDS011;6082;49.306;12.862;2022-07-23T14:37:28;2.85;;;2.33;;
12042;SDS011;6082;49.306;12.862;2022-07-23T14:39:54;3.22;;;2.42;;
12042;SDS011;6082;49.306;12.862;2022-07-23T14:42:21;3.75;;;2.40;;
12042;SDS011;6082;49.306;12.862;2022-07-23T14:44:47;2.42;;;2.10;;
12042;SDS011;6082;49.306;12.862;2022-07-23T14:47:13;2.83;;;2.20;;
12042;SDS011;6082;49.306;12.862;2022-07-23T14:49:39;2.60;;;2.40;;
12042;SDS011;6082;49.306;12.862;2022-07-23T14:52:05;2.55;;;2.35;;
12042;SDS011;6082;49.306;12.862;2022-07-23T14:54:32;2.58;;;2.38;;
12042;SDS011;6082;49.306;12.862;2022-07-23T14:56:58;2.90;;;2.60;;
12042;SDS011;6082;49.306;12.862;2022-07-23T14:59:25;2.73;;;2.23;;
12042;SDS011;6082;49.306;12.862;2022-07-23T15:01:51;2.67;;;2.47;;
12042;SDS011;6082;49.306;12.862;2022-07-23T15:04:18;2.60;;;2.40;;
12042;SDS011;6082;49.306;12.862;2022-07-23T15:06:44;2.60;;;2.40;;
12042;SDS011;6082;49.306;12.862;2022-07-23T15:09:13;2.60;;;2.35;;
12042;SDS011;6082;49.306;12.862;2022-07-23T15:11:40;3.00;;;2.65;;
12042;SDS011;6082;49.306;12.862;2022-07-23T15:14:06;2.80;;;2.60;;
12042;SDS011;6082;49.306;12.862;2022-07-23T15:16:32;2.55;;;2.35;;
12042;SDS011;6082;49.306;12.862;2022-07-23T15:18:58;2.47;;;2.28;;
12042;SDS011;6082;49.306;12.862;2022-07-23T15:21:25;3.35;;;2.53;;
12042;SDS011;6082;49.306;12.862;2022-07-23T15:23:51;2.60;;;2.40;;
12042;SDS011;6082;49.306;12.862;2022-07-23T15:29:22;2.72;;;2.38;;